createdAt,value
2022-09-03T00:00:29.128Z,27.10
2022-09-03T00:03:04.243Z,27.10
2022-09-03T00:05:40.841Z,27.00
2022-09-03T00:08:10.921Z,27.00
2022-09-03T00:10:57.932Z,27.00
2022-09-03T00:13:44.089Z,27.00
2022-09-03T00:16:15.253Z,27.10
2022-09-03T00:18:46.367Z,27.10
2022-09-03T00:21:20.493Z,27.10
2022-09-03T00:23:50.239Z,27.20
2022-09-03T00:26:27.298Z,27.20
2022-09-03T00:28:55.740Z,27.20
2022-09-03T00:31:30.482Z,27.30
2022-09-03T00:34:04.659Z,27.30
2022-09-03T00:36:36.969Z,27.30
2022-09-03T00:39:05.996Z,27.30
2022-09-03T00:41:42.925Z,27.40
2022-09-03T00:44:14.202Z,27.40
2022-09-03T00:46:46.666Z,27.50
2022-09-03T00:49:32.614Z,27.50
2022-09-03T00:52:01.093Z,27.40
2022-09-03T00:54:42.062Z,27.50
2022-09-03T00:57:17.095Z,27.50
2022-09-03T00:59:45.589Z,27.50
2022-09-03T01:02:14.249Z,27.40
2022-09-03T01:04:52.322Z,27.40
2022-09-03T01:07:20.864Z,27.40
2022-09-03T01:10:01.230Z,27.50
2022-09-03T01:12:42.139Z,27.50
2022-09-03T01:15:15.421Z,27.50
2022-09-03T01:17:49.924Z,27.50
2022-09-03T01:20:24.589Z,27.60
2022-09-03T01:23:11.211Z,27.60
2022-09-03T01:25:51.719Z,27.60
2022-09-03T01:28:21.663Z,27.60
2022-09-03T01:30:59.260Z,27.60
2022-09-03T01:33:33.995Z,27.60
2022-09-03T01:36:13.802Z,27.60
2022-09-03T01:39:00.832Z,27.70
2022-09-03T01:41:47.675Z,27.70
2022-09-03T01:44:24.742Z,27.70
2022-09-03T01:47:00.938Z,27.70
2022-09-03T01:49:35.115Z,27.80
2022-09-03T01:52:14.856Z,27.80
2022-09-03T01:54:43.448Z,27.80
2022-09-03T01:57:35.894Z,27.80
2022-09-03T02:00:14.605Z,27.90
2022-09-03T02:02:44.663Z,27.90
2022-09-03T02:05:15.546Z,27.90
2022-09-03T02:07:49.320Z,27.90
2022-09-03T02:10:19.215Z,27.90
2022-09-03T02:12:49.067Z,28.00
2022-09-03T02:15:19.901Z,28.00
2022-09-03T02:17:51.173Z,28.00
2022-09-03T02:20:22.423Z,28.00
2022-09-03T02:22:51.414Z,28.10
2022-09-03T02:25:20.200Z,28.10
2022-09-03T02:27:50.034Z,28.10
2022-09-03T02:30:19.737Z,28.20
2022-09-03T02:32:48.282Z,28.20
2022-09-03T02:35:16.839Z,28.30
2022-09-03T02:37:45.418Z,28.30
2022-09-03T02:40:13.956Z,28.30
2022-09-03T02:42:42.619Z,28.30
2022-09-03T02:45:13.902Z,28.30
2022-09-03T02:47:44.169Z,28.40
2022-09-03T02:50:12.722Z,28.40
2022-09-03T02:52:41.342Z,28.40
2022-09-03T02:55:10.852Z,28.40
2022-09-03T02:57:39.338Z,28.40
2022-09-03T03:00:08.554Z,28.40
2022-09-03T03:02:37.356Z,28.40
2022-09-03T03:05:07.110Z,28.40
2022-09-03T03:07:38.338Z,28.40
2022-09-03T03:10:07.022Z,28.40
2022-09-03T03:12:36.201Z,28.30
2022-09-03T03:15:05.337Z,28.20
2022-09-03T03:17:33.976Z,28.10
2022-09-03T03:20:02.472Z,28.00
2022-09-03T03:22:31.169Z,27.90
2022-09-03T03:24:59.698Z,27.90
2022-09-03T03:27:29.019Z,27.80
2022-09-03T03:29:59.229Z,27.70
2022-09-03T03:32:28.425Z,27.60
2022-09-03T03:34:56.888Z,27.50
2022-09-03T03:37:25.429Z,27.50
2022-09-03T03:39:54.085Z,27.50
2022-09-03T03:42:22.601Z,27.40
2022-09-03T03:44:51.116Z,27.40
2022-09-03T03:47:19.756Z,27.50
2022-09-03T03:49:48.265Z,27.50
2022-09-03T03:52:16.772Z,27.50
2022-09-03T03:54:45.545Z,27.60
2022-09-03T03:57:14.289Z,27.60
2022-09-03T03:59:42.885Z,27.60
2022-09-03T04:02:11.463Z,27.70
2022-09-03T04:04:39.989Z,27.70
2022-09-03T04:07:08.681Z,27.70
2022-09-03T04:09:37.243Z,27.80
2022-09-03T04:12:09.699Z,27.80
2022-09-03T04:14:38.250Z,27.90
2022-09-03T04:17:06.756Z,28.00
2022-09-03T04:19:35.296Z,28.10
2022-09-03T04:22:06.745Z,28.10
2022-09-03T04:24:35.437Z,28.10
2022-09-03T04:27:03.944Z,28.20
2022-09-03T04:29:32.430Z,28.20
2022-09-03T04:32:19.632Z,28.20
2022-09-03T04:34:48.127Z,28.30
2022-09-03T04:37:17.650Z,28.30
2022-09-03T04:39:46.449Z,28.30
2022-09-03T04:42:15.169Z,28.30
2022-09-03T04:44:46.495Z,28.30
2022-09-03T04:47:16.279Z,28.30
2022-09-03T04:49:44.814Z,28.40
2022-09-03T04:52:13.361Z,28.50
2022-09-03T04:54:41.887Z,28.50
2022-09-03T04:57:10.405Z,28.60
2022-09-03T04:59:39.103Z,28.70
2022-09-03T05:02:07.578Z,28.80
2022-09-03T05:04:38.773Z,28.80
2022-09-03T05:07:11.700Z,28.90
2022-09-03T05:09:40.269Z,29.00
2022-09-03T05:12:08.875Z,29.00
2022-09-03T05:14:37.668Z,29.10
2022-09-03T05:17:06.309Z,29.10
2022-09-03T05:19:35.533Z,29.20
2022-09-03T05:22:04.027Z,29.20
2022-09-03T05:24:32.980Z,29.20
2022-09-03T05:27:01.460Z,29.20
2022-09-03T05:29:29.965Z,29.30
2022-09-03T05:31:59.654Z,29.40
2022-09-03T05:34:28.963Z,29.40
2022-09-03T05:36:59.717Z,29.50
2022-09-03T05:39:28.245Z,29.50
2022-09-03T05:41:56.802Z,29.60
2022-09-03T05:44:25.554Z,29.60
2022-09-03T05:46:54.704Z,29.60
2022-09-03T05:49:23.244Z,29.70
2022-09-03T05:51:51.807Z,29.70
2022-09-03T05:54:20.290Z,29.80
2022-09-03T05:56:48.811Z,29.80
2022-09-03T05:59:17.525Z,29.90
2022-09-03T06:01:51.598Z,29.90
2022-09-03T06:04:21.866Z,29.90
2022-09-03T06:06:50.441Z,30.00
2022-09-03T06:09:20.623Z,30.10
2022-09-03T06:11:50.840Z,30.10
2022-09-03T06:14:21.311Z,30.20
2022-09-03T06:16:50.757Z,30.20
2022-09-03T06:19:19.395Z,30.20
2022-09-03T06:21:48.320Z,30.20
2022-09-03T06:24:21.526Z,30.30
2022-09-03T06:26:50.128Z,30.30
2022-09-03T06:29:20.290Z,30.30
2022-09-03T06:31:52.317Z,30.30
2022-09-03T06:34:21.160Z,30.30
2022-09-03T06:36:49.829Z,30.30
2022-09-03T06:39:18.628Z,30.30
2022-09-03T06:41:49.362Z,30.30
2022-09-03T06:44:17.858Z,30.30
2022-09-03T06:46:49.729Z,30.20
2022-09-03T06:49:18.817Z,30.20
2022-09-03T06:51:47.493Z,30.30
2022-09-03T06:54:17.005Z,30.20
2022-09-03T06:56:46.591Z,30.30
2022-09-03T06:59:16.518Z,30.30
2022-09-03T07:01:46.899Z,30.30
2022-09-03T07:04:19.478Z,30.30
2022-09-03T07:06:49.094Z,30.30
2022-09-03T07:09:19.365Z,30.30
2022-09-03T07:11:48.912Z,30.30
2022-09-03T07:14:19.091Z,30.30
2022-09-03T07:16:48.276Z,30.20
2022-09-03T07:19:16.922Z,30.20
2022-09-03T07:21:49.603Z,30.20
2022-09-03T07:24:19.422Z,30.20
2022-09-03T07:26:49.768Z,30.20
2022-09-03T07:29:21.430Z,30.30
2022-09-03T07:31:53.038Z,30.30
2022-09-03T07:34:22.442Z,30.30
2022-09-03T07:36:52.681Z,30.40
2022-09-03T07:39:21.369Z,30.40
2022-09-03T07:41:51.336Z,30.40
2022-09-03T07:44:24.074Z,30.40
2022-09-03T07:46:52.741Z,30.40
2022-09-03T07:49:22.780Z,30.40
2022-09-03T07:51:55.292Z,30.40
2022-09-03T07:54:25.034Z,30.40
2022-09-03T07:56:53.586Z,30.40
2022-09-03T07:59:29.496Z,30.40
2022-09-03T08:01:58.843Z,30.40
2022-09-03T08:04:27.353Z,30.40
2022-09-03T08:06:57.965Z,30.50
2022-09-03T08:09:26.459Z,30.50
2022-09-03T08:11:55.022Z,30.50
2022-09-03T08:14:23.576Z,30.60
2022-09-03T08:16:52.117Z,30.50
2022-09-03T08:19:21.195Z,30.60
2022-09-03T08:21:49.850Z,30.50
2022-09-03T08:24:19.079Z,30.60
2022-09-03T08:26:51.776Z,30.60
2022-09-03T08:29:21.567Z,30.60
2022-09-03T08:31:50.233Z,30.60
2022-09-03T08:34:20.308Z,30.60
2022-09-03T08:36:49.012Z,30.50
2022-09-03T08:39:17.771Z,30.50
2022-09-03T08:41:52.275Z,30.50
2022-09-03T08:44:27.413Z,30.50
2022-09-03T08:46:56.265Z,30.50
2022-09-03T08:49:29.195Z,30.40
2022-09-03T08:51:59.044Z,30.40
2022-09-03T08:54:29.373Z,30.40
2022-09-03T08:56:59.959Z,30.30
2022-09-03T08:59:33.053Z,30.30
2022-09-03T09:02:12.380Z,30.30
2022-09-03T09:04:59.270Z,30.20
2022-09-03T09:07:27.770Z,30.20
2022-09-03T09:10:10.569Z,30.20
2022-09-03T09:12:54.159Z,30.20
2022-09-03T09:15:28.458Z,30.20
2022-09-03T09:18:05.759Z,30.10
2022-09-03T09:20:40.432Z,30.10
2022-09-03T09:23:09.948Z,30.10
2022-09-03T09:25:45.302Z,30.20
2022-09-03T09:28:21.656Z,30.10
2022-09-03T09:30:52.642Z,30.10
2022-09-03T09:33:22.115Z,30.10
2022-09-03T09:35:50.970Z,30.00
2022-09-03T09:38:29.538Z,30.10
2022-09-03T09:40:59.385Z,30.00
2022-09-03T09:43:27.919Z,30.00
2022-09-03T09:45:56.800Z,30.00
2022-09-03T09:48:32.846Z,30.00
2022-09-03T09:51:20.042Z,29.90
2022-09-03T09:53:48.573Z,29.90
2022-09-03T09:56:25.136Z,29.90
2022-09-03T09:59:10.013Z,29.90
2022-09-03T10:01:40.111Z,29.90
2022-09-03T10:04:13.223Z,29.90
2022-09-03T10:06:58.199Z,29.80
2022-09-03T10:09:31.829Z,29.80
2022-09-03T10:12:06.750Z,29.80
2022-09-03T10:14:43.137Z,29.80
2022-09-03T10:17:22.244Z,29.70
2022-09-03T10:20:22.176Z,29.70
2022-09-03T10:22:57.037Z,29.70
2022-09-03T10:25:30.669Z,29.60
2022-09-03T10:28:01.649Z,29.60
2022-09-03T10:30:31.360Z,29.60
2022-09-03T10:33:13.914Z,29.60
2022-09-03T10:35:47.590Z,29.50
2022-09-03T10:38:16.175Z,29.60
2022-09-03T10:40:51.459Z,29.50
2022-09-03T10:43:31.220Z,29.50
2022-09-03T10:46:14.932Z,29.50
2022-09-03T10:49:09.676Z,29.50
2022-09-03T10:51:46.194Z,29.50
2022-09-03T10:54:25.648Z,29.40
2022-09-03T10:56:54.274Z,29.40
2022-09-03T10:59:26.060Z,29.40
2022-09-03T11:02:09.353Z,29.30
2022-09-03T11:04:50.555Z,29.30
2022-09-03T11:07:22.645Z,29.30
2022-09-03T11:09:53.905Z,29.20
2022-09-03T11:12:28.793Z,29.20
2022-09-03T11:15:04.858Z,29.20
2022-09-03T11:17:41.530Z,29.20
2022-09-03T11:20:16.647Z,29.20
2022-09-03T11:22:46.479Z,29.20
2022-09-03T11:25:16.123Z,29.20
2022-09-03T11:27:44.611Z,29.20
2022-09-03T11:30:24.306Z,29.20
2022-09-03T11:33:02.196Z,29.10
2022-09-03T11:35:33.766Z,29.10
2022-09-03T11:38:02.232Z,29.10
2022-09-03T11:40:34.446Z,29.10
2022-09-03T11:43:14.000Z,29.10
2022-09-03T11:45:42.949Z,29.10
2022-09-03T11:48:29.611Z,29.10
2022-09-03T11:50:58.501Z,29.10
2022-09-03T11:53:35.631Z,29.10
2022-09-03T11:56:07.024Z,29.10
2022-09-03T11:58:38.102Z,29.00
2022-09-03T12:01:16.159Z,29.00
2022-09-03T12:03:46.321Z,29.00
2022-09-03T12:06:32.980Z,29.00
2022-09-03T12:09:02.194Z,29.00
2022-09-03T12:11:47.595Z,28.90
2022-09-03T12:14:23.941Z,28.90
2022-09-03T12:17:01.672Z,28.90
2022-09-03T12:19:42.972Z,28.90
2022-09-03T12:22:17.901Z,28.90
2022-09-03T12:24:46.684Z,28.90
2022-09-03T12:27:23.747Z,28.90
2022-09-03T12:29:57.841Z,28.90
2022-09-03T12:32:27.525Z,28.90
2022-09-03T12:34:56.081Z,28.90
2022-09-03T12:40:20.158Z,28.90
2022-09-03T12:42:49.200Z,28.90
2022-09-03T12:46:09.380Z,28.90
2022-09-03T12:48:18.503Z,28.90
2022-09-03T12:50:49.394Z,28.90
2022-09-03T12:53:26.792Z,28.90
2022-09-03T12:55:58.212Z,28.80
2022-09-03T12:58:33.389Z,28.80
2022-09-03T13:01:06.239Z,28.80
2022-09-03T13:03:41.300Z,28.70
2022-09-03T13:06:11.940Z,28.70
2022-09-03T13:08:48.795Z,28.60
2022-09-03T13:11:20.230Z,28.60
2022-09-03T13:14:03.937Z,28.60
2022-09-03T13:16:41.313Z,28.60
2022-09-03T13:19:35.341Z,28.50
2022-09-03T13:22:22.025Z,28.50
2022-09-03T13:25:10.585Z,28.50
2022-09-03T13:27:42.121Z,28.50
2022-09-03T13:30:20.999Z,28.50
2022-09-03T13:32:52.338Z,28.50
2022-09-03T13:35:20.765Z,28.50
2022-09-03T13:38:07.926Z,28.40
2022-09-03T13:40:49.661Z,28.40
2022-09-03T13:43:32.154Z,28.40
2022-09-03T13:46:03.502Z,28.40
2022-09-03T13:48:53.702Z,28.40
2022-09-03T13:51:28.930Z,28.40
2022-09-03T13:53:57.534Z,28.40
2022-09-03T13:56:32.158Z,28.40
2022-09-03T13:59:18.805Z,28.40
2022-09-03T14:01:53.187Z,28.40
2022-09-03T14:04:31.583Z,28.40
2022-09-03T14:07:11.528Z,28.30
2022-09-03T14:09:42.822Z,28.30
2022-09-03T14:12:21.381Z,28.30
2022-09-03T14:14:55.880Z,28.30
2022-09-03T14:17:39.291Z,28.30
2022-09-03T14:20:08.532Z,28.20
2022-09-03T14:22:40.153Z,28.20
2022-09-03T14:25:15.400Z,28.20
2022-09-03T14:27:44.044Z,28.20
2022-09-03T14:30:28.331Z,28.20
2022-09-03T14:33:09.374Z,28.20
2022-09-03T14:35:55.703Z,28.20
2022-09-03T14:38:32.426Z,28.20
2022-09-03T14:41:00.929Z,28.20
2022-09-03T14:43:29.442Z,28.10
2022-09-03T14:46:13.147Z,28.00
2022-09-03T14:48:58.443Z,28.00
2022-09-03T14:51:37.573Z,28.00
2022-09-03T14:54:06.345Z,28.00
2022-09-03T14:56:41.542Z,28.00
2022-09-03T14:59:25.381Z,27.90
2022-09-03T15:02:09.500Z,27.90
2022-09-03T15:04:55.180Z,28.00
2022-09-03T15:07:32.287Z,27.90
2022-09-03T15:10:08.112Z,27.90
2022-09-03T15:12:42.422Z,27.90
2022-09-03T15:15:14.851Z,27.90
2022-09-03T15:17:48.239Z,27.80
2022-09-03T15:20:24.594Z,27.80
2022-09-03T15:22:58.001Z,27.80
2022-09-03T15:25:26.615Z,27.70
2022-09-03T15:28:13.457Z,27.60
2022-09-03T15:30:44.668Z,27.60
2022-09-03T15:33:20.088Z,27.50
2022-09-03T15:35:54.632Z,27.40
2022-09-03T15:38:36.679Z,27.40
2022-09-03T15:41:09.628Z,27.30
2022-09-03T15:43:38.350Z,27.20
2022-09-03T15:46:11.843Z,27.10
2022-09-03T15:49:00.832Z,27.10
2022-09-03T15:51:32.024Z,27.00
2022-09-03T15:54:04.592Z,26.90
2022-09-03T15:56:33.176Z,26.90
2022-09-03T15:59:01.679Z,26.80
2022-09-03T16:01:39.274Z,26.80
2022-09-03T16:04:13.869Z,26.80
2022-09-03T16:06:52.044Z,26.80
2022-09-03T16:09:34.097Z,26.80
2022-09-03T16:12:11.854Z,26.80
2022-09-03T16:14:45.880Z,26.80
2022-09-03T16:17:24.686Z,26.80
2022-09-03T16:20:02.903Z,26.80
2022-09-03T16:22:32.618Z,26.70
2022-09-03T16:25:01.106Z,26.70
2022-09-03T16:27:35.801Z,26.60
2022-09-03T16:30:07.060Z,26.60
2022-09-03T16:32:41.683Z,26.50
2022-09-03T16:35:16.428Z,26.40
2022-09-03T16:37:53.981Z,26.40
2022-09-03T16:40:40.896Z,26.30
2022-09-03T16:43:40.704Z,26.20
2022-09-03T16:46:19.246Z,26.20
2022-09-03T16:49:03.083Z,26.20
2022-09-03T16:51:34.646Z,26.20
2022-09-03T16:54:10.245Z,26.20
2022-09-03T16:56:54.071Z,26.10
2022-09-03T16:59:30.286Z,26.10
2022-09-03T17:01:58.956Z,26.00
2022-09-03T17:04:30.637Z,26.00
2022-09-03T17:07:15.657Z,26.00
2022-09-03T17:10:02.668Z,26.00
2022-09-03T17:12:40.186Z,26.10
2022-09-03T17:15:08.822Z,26.20
2022-09-03T17:17:50.572Z,26.20
2022-09-03T17:20:19.498Z,26.20
2022-09-03T17:23:01.111Z,26.30
2022-09-03T17:25:36.660Z,26.20
2022-09-03T17:28:25.223Z,26.20
2022-09-03T17:30:59.264Z,26.20
2022-09-03T17:33:37.043Z,26.20
2022-09-03T17:36:22.491Z,26.10
2022-09-03T17:39:04.164Z,26.10
2022-09-03T17:41:54.511Z,26.20
2022-09-03T17:44:41.895Z,26.20
2022-09-03T17:47:13.333Z,26.20
2022-09-03T17:49:53.693Z,26.20
2022-09-03T17:52:30.820Z,26.20
2022-09-03T17:55:02.111Z,26.20
2022-09-03T17:57:32.237Z,26.20
2022-09-03T18:00:10.455Z,26.20
2022-09-03T18:02:52.377Z,26.20
2022-09-03T18:05:24.101Z,26.20
2022-09-03T18:07:59.844Z,26.20
2022-09-03T18:10:34.291Z,26.20
2022-09-03T18:13:09.128Z,26.20
2022-09-03T18:15:50.961Z,26.30
2022-09-03T18:18:22.772Z,26.30
2022-09-03T18:21:25.184Z,26.30
2022-09-03T18:24:19.771Z,26.30
2022-09-03T18:27:11.615Z,26.30
2022-09-03T18:30:19.640Z,26.40
2022-09-03T18:33:07.239Z,26.30
2022-09-03T18:35:54.030Z,26.40
2022-09-03T18:38:47.715Z,26.40
2022-09-03T18:41:46.340Z,26.40
2022-09-03T18:44:38.981Z,26.40
2022-09-03T18:50:38.717Z,26.50
2022-09-03T18:53:31.389Z,26.50
2022-09-03T18:56:33.023Z,26.50
2022-09-03T18:59:22.303Z,26.50
2022-09-03T19:02:11.010Z,26.50
2022-09-03T19:05:12.977Z,26.60
2022-09-03T19:08:00.330Z,26.70
2022-09-03T19:10:49.653Z,26.70
2022-09-03T19:13:36.244Z,26.70
2022-09-03T19:16:28.824Z,26.70
2022-09-03T19:19:16.561Z,26.60
2022-09-03T19:22:08.645Z,26.60
2022-09-03T19:24:55.590Z,26.50
2022-09-03T19:27:59.909Z,26.40
2022-09-03T19:30:51.955Z,26.40
2022-09-03T19:33:38.697Z,26.40
2022-09-03T19:36:43.815Z,26.40
2022-09-03T19:39:33.254Z,26.40
2022-09-03T19:42:20.050Z,26.40
2022-09-03T19:45:17.407Z,26.40
2022-09-03T19:48:07.133Z,26.50
2022-09-03T19:50:56.840Z,26.50
2022-09-03T19:53:43.599Z,26.40
2022-09-03T19:56:38.841Z,26.40
2022-09-03T19:59:32.701Z,26.40
2022-09-03T20:02:20.477Z,26.30
2022-09-03T20:05:21.525Z,26.30
2022-09-03T20:08:10.234Z,26.40
2022-09-03T20:10:39.179Z,26.40
2022-09-03T20:13:14.628Z,26.50
2022-09-03T20:15:54.567Z,26.50
2022-09-03T20:18:33.506Z,26.50
2022-09-03T20:21:01.971Z,26.50
2022-09-03T20:23:34.970Z,26.50
2022-09-03T20:26:10.595Z,26.50
2022-09-03T20:28:40.988Z,26.40
2022-09-03T20:31:12.939Z,26.40
2022-09-03T20:33:56.580Z,26.30
2022-09-03T20:36:43.083Z,26.30
2022-09-03T20:39:28.468Z,26.30
2022-09-03T20:42:08.276Z,26.30
2022-09-03T20:44:36.896Z,26.40
2022-09-03T20:47:23.802Z,26.30
2022-09-03T20:50:16.052Z,26.30
2022-09-03T20:52:47.409Z,26.20
2022-09-03T20:55:35.053Z,26.20
2022-09-03T20:58:03.496Z,26.20
2022-09-03T21:00:40.151Z,26.20
2022-09-03T21:03:11.695Z,26.20
2022-09-03T21:05:45.500Z,26.20
2022-09-03T21:08:19.850Z,26.20
2022-09-03T21:10:54.588Z,26.20
2022-09-03T21:13:26.079Z,26.30
2022-09-03T21:16:13.128Z,26.20
2022-09-03T21:18:50.905Z,26.30
2022-09-03T21:21:19.425Z,26.30
2022-09-03T21:23:50.233Z,26.20
2022-09-03T21:26:24.964Z,26.20
2022-09-03T21:28:59.631Z,26.20
2022-09-03T21:31:38.418Z,26.20
2022-09-03T21:34:12.891Z,26.20
2022-09-03T21:36:44.238Z,26.20
2022-09-03T21:39:12.760Z,26.10
2022-09-03T21:42:02.129Z,26.10
2022-09-03T21:44:36.496Z,26.10
2022-09-03T21:47:07.829Z,26.10
2022-09-03T21:49:42.185Z,26.10
2022-09-03T21:52:14.326Z,26.10
2022-09-03T21:54:42.823Z,26.10
2022-09-03T21:57:15.273Z,26.10
2022-09-03T21:59:56.062Z,26.20
2022-09-03T22:02:27.778Z,26.20
2022-09-03T22:04:57.356Z,26.20
2022-09-03T22:07:32.061Z,26.20
2022-09-03T22:10:00.539Z,26.20
2022-09-03T22:12:35.071Z,26.20
2022-09-03T22:15:11.291Z,26.20
2022-09-03T22:17:45.159Z,26.20
2022-09-03T22:20:16.595Z,26.20
2022-09-03T22:22:45.162Z,26.20
2022-09-03T22:25:17.509Z,26.20
2022-09-03T22:27:50.060Z,26.30
2022-09-03T22:30:22.967Z,26.30
2022-09-03T22:32:51.583Z,26.30
2022-09-03T22:35:20.124Z,26.40
2022-09-03T22:38:06.866Z,26.30
2022-09-03T22:40:49.123Z,26.30
2022-09-03T22:43:39.688Z,26.40
2022-09-03T22:46:18.786Z,26.50
2022-09-03T22:49:08.145Z,26.50
2022-09-03T22:51:51.845Z,26.60
2022-09-03T22:54:29.483Z,26.60
2022-09-03T22:56:59.449Z,26.70
2022-09-03T22:59:31.247Z,26.60
2022-09-03T23:02:04.718Z,26.60
2022-09-03T23:04:33.336Z,26.60
2022-09-03T23:07:02.104Z,26.50
2022-09-03T23:09:35.092Z,26.40
2022-09-03T23:12:07.841Z,26.40
2022-09-03T23:14:52.387Z,26.40
2022-09-03T23:22:43.678Z,26.50
2022-09-03T23:25:19.734Z,26.40
2022-09-03T23:27:54.693Z,26.40
2022-09-03T23:30:23.474Z,26.40
2022-09-03T23:32:58.679Z,26.30
2022-09-03T23:35:29.255Z,26.30
2022-09-03T23:38:12.453Z,26.20
2022-09-03T23:40:46.457Z,26.20
2022-09-03T23:43:23.882Z,26.20
2022-09-03T23:46:11.084Z,26.20
2022-09-03T23:48:59.177Z,26.20
2022-09-03T23:51:33.942Z,26.20
2022-09-03T23:54:05.403Z,26.20
2022-09-03T23:56:46.631Z,26.10
2022-09-03T23:59:30.360Z,26.10
